createdAt,value
2022-10-03T00:03:32.318Z,1371
2022-10-03T00:08:50.819Z,1381
2022-10-03T00:14:09.053Z,1396
2022-10-03T00:19:27.400Z,1422
2022-10-03T00:24:45.869Z,1418
2022-10-03T00:30:04.397Z,1427
2022-10-03T00:35:22.849Z,1430
2022-10-03T00:40:41.635Z,1445
2022-10-03T00:45:59.855Z,1442
2022-10-03T00:51:18.051Z,1457
2022-10-03T00:56:36.261Z,1436
2022-10-03T01:01:54.526Z,1432
2022-10-03T01:07:13.074Z,1449
2022-10-03T01:12:31.324Z,1436
2022-10-03T01:17:49.803Z,1447
2022-10-03T01:23:08.543Z,1441
2022-10-03T01:28:27.100Z,1449
2022-10-03T01:33:45.983Z,1452
2022-10-03T01:39:04.188Z,1457
2022-10-03T01:44:22.370Z,1469
2022-10-03T01:49:40.902Z,1460
2022-10-03T01:54:59.211Z,1454
2022-10-03T02:00:17.995Z,1455
2022-10-03T02:05:36.772Z,1457
2022-10-03T02:10:54.966Z,1487
2022-10-03T02:16:13.228Z,1492
2022-10-03T02:21:31.637Z,1468
2022-10-03T02:26:49.806Z,1448
2022-10-03T02:32:08.294Z,1436
2022-10-03T02:37:27.103Z,1437
2022-10-03T02:42:45.454Z,1431
2022-10-03T02:48:27.368Z,1429
2022-10-03T02:53:50.519Z,1430
2022-10-03T02:59:09.003Z,1432
2022-10-03T03:04:27.212Z,1437
2022-10-03T03:09:45.705Z,1433
2022-10-03T03:15:03.715Z,1432
2022-10-03T03:20:22.203Z,1447
2022-10-03T03:25:40.492Z,1459
2022-10-03T03:30:59.231Z,1468
2022-10-03T03:36:18.042Z,1476
2022-10-03T03:41:36.911Z,1486
2022-10-03T03:46:56.307Z,1467
2022-10-03T03:52:14.513Z,1448
2022-10-03T03:57:33.285Z,1431
2022-10-03T04:02:51.757Z,1422
2022-10-03T04:08:09.706Z,1421
2022-10-03T04:13:28.499Z,1428
2022-10-03T04:18:47.228Z,1419
2022-10-03T04:24:06.012Z,1427
2022-10-03T04:29:24.787Z,1415
2022-10-03T04:34:43.100Z,1406
2022-10-03T04:40:01.850Z,954
2022-10-03T04:45:20.351Z,913
2022-10-03T04:50:38.524Z,877
2022-10-03T04:55:57.026Z,841
2022-10-03T05:01:15.579Z,791
2022-10-03T05:06:34.066Z,795
2022-10-03T05:11:52.558Z,854
2022-10-03T05:17:10.892Z,899
2022-10-03T05:22:29.108Z,879
2022-10-03T05:27:47.684Z,864
2022-10-03T05:33:08.634Z,876
2022-10-03T05:38:27.188Z,859
2022-10-03T05:43:45.965Z,848
2022-10-03T05:49:04.454Z,845
2022-10-03T05:54:22.786Z,847
2022-10-03T05:59:41.232Z,846
2022-10-03T06:04:59.753Z,836
2022-10-03T06:10:18.493Z,849
2022-10-03T06:15:37.298Z,847
2022-10-03T06:20:56.107Z,849
2022-10-03T06:25:59.224Z,846
2022-10-03T06:31:18.285Z,835
2022-10-03T06:36:36.976Z,817
2022-10-03T06:41:55.786Z,813
2022-10-03T06:47:14.244Z,815
2022-10-03T06:52:32.732Z,808
2022-10-03T06:57:51.467Z,804
2022-10-03T07:03:09.658Z,815
2022-10-03T07:08:28.136Z,817
2022-10-03T07:13:46.642Z,809
2022-10-03T07:19:05.089Z,814
2022-10-03T07:24:23.919Z,828
2022-10-03T07:29:42.360Z,819
2022-10-03T07:35:00.558Z,809
2022-10-03T07:40:19.365Z,815
2022-10-03T07:45:37.818Z,822
2022-10-03T07:50:56.299Z,822
2022-10-03T07:56:15.022Z,814
2022-10-03T08:01:33.486Z,814
2022-10-03T08:06:51.733Z,810
2022-10-03T08:12:10.481Z,795
2022-10-03T08:17:28.661Z,788
2022-10-03T08:22:47.446Z,792
2022-10-03T08:28:06.279Z,791
2022-10-03T08:33:24.878Z,802
2022-10-03T08:38:43.374Z,794
2022-10-03T08:44:02.122Z,795
2022-10-03T08:49:20.585Z,783
2022-10-03T08:54:38.777Z,772
2022-10-03T08:59:57.573Z,785
2022-10-03T09:05:16.316Z,778
2022-10-03T09:10:34.506Z,783
2022-10-03T09:15:53.216Z,772
2022-10-03T09:21:11.489Z,767
2022-10-03T09:26:29.955Z,765
2022-10-03T09:31:48.814Z,769
2022-10-03T09:37:10.894Z,751
2022-10-03T09:42:29.058Z,758
2022-10-03T09:47:47.589Z,754
2022-10-03T09:53:05.850Z,730
2022-10-03T09:58:24.083Z,719
2022-10-03T10:03:42.961Z,713
2022-10-03T10:09:01.842Z,730
2022-10-03T10:14:19.761Z,723
2022-10-03T10:19:38.557Z,703
2022-10-03T10:24:57.029Z,690
2022-10-03T10:30:15.582Z,661
2022-10-03T10:35:34.077Z,653
2022-10-03T10:40:52.813Z,656
2022-10-03T10:46:11.578Z,655
2022-10-03T10:51:29.955Z,661
2022-10-03T10:56:48.419Z,644
2022-10-03T11:02:06.899Z,646
2022-10-03T11:07:25.663Z,634
2022-10-03T11:12:44.141Z,623
2022-10-03T11:17:47.258Z,611
2022-10-03T11:23:06.047Z,612
2022-10-03T11:28:27.068Z,606
2022-10-03T11:33:45.470Z,593
2022-10-03T11:39:04.272Z,581
2022-10-03T11:44:22.423Z,588
2022-10-03T11:49:40.905Z,586
2022-10-03T11:54:59.412Z,588
2022-10-03T12:00:18.159Z,578
2022-10-03T12:05:36.636Z,584
2022-10-03T12:10:55.474Z,589
2022-10-03T12:16:13.908Z,590
2022-10-03T12:21:32.573Z,598
2022-10-03T12:26:51.337Z,599
2022-10-03T12:31:56.012Z,604
2022-10-03T12:37:14.225Z,605
2022-10-03T12:42:32.749Z,607
2022-10-03T12:47:55.598Z,612
2022-10-03T12:53:14.806Z,614
2022-10-03T12:58:33.303Z,603
2022-10-03T13:03:51.754Z,642
2022-10-03T13:09:10.238Z,628
2022-10-03T13:14:29.029Z,634
2022-10-03T13:19:47.209Z,649
2022-10-03T13:25:05.435Z,627
2022-10-03T13:30:24.301Z,643
2022-10-03T13:35:42.265Z,658
2022-10-03T13:41:01.031Z,663
2022-10-03T13:46:19.926Z,676
2022-10-03T13:51:38.487Z,663
2022-10-03T13:56:57.861Z,676
2022-10-03T14:02:16.458Z,687
2022-10-03T14:07:34.805Z,678
2022-10-03T14:12:55.995Z,677
2022-10-03T14:18:15.006Z,687
2022-10-03T14:23:33.530Z,697
2022-10-03T14:28:36.738Z,699
2022-10-03T14:33:55.366Z,708
2022-10-03T14:39:13.552Z,699
2022-10-03T14:44:32.296Z,692
2022-10-03T14:49:58.642Z,705
2022-10-03T14:55:18.314Z,724
2022-10-03T15:00:36.801Z,739
2022-10-03T15:05:55.257Z,724
2022-10-03T15:11:13.720Z,729
2022-10-03T15:16:32.260Z,725
2022-10-03T15:21:50.309Z,728
2022-10-03T15:27:08.755Z,753
2022-10-03T15:32:27.281Z,772
2022-10-03T15:37:47.875Z,771
2022-10-03T15:43:06.556Z,778
2022-10-03T15:48:25.323Z,778
2022-10-03T15:53:44.211Z,777
2022-10-03T15:59:02.432Z,795
2022-10-03T16:04:20.861Z,819
2022-10-03T16:09:39.628Z,820
2022-10-03T16:14:57.824Z,820
2022-10-03T16:20:16.584Z,823
2022-10-03T16:25:35.070Z,815
2022-10-03T16:30:53.572Z,819
2022-10-03T16:36:12.043Z,671
2022-10-03T16:41:30.577Z,623
2022-10-03T16:46:49.308Z,605
2022-10-03T16:52:07.792Z,582
2022-10-03T16:57:26.287Z,580
2022-10-03T17:02:44.391Z,502
2022-10-03T17:08:18.257Z,475
2022-10-03T17:14:00.299Z,439
2022-10-03T17:19:18.185Z,422
2022-10-03T17:24:36.366Z,414
2022-10-03T17:29:55.141Z,412
2022-10-03T17:35:13.533Z,409
2022-10-03T17:40:31.754Z,409
2022-10-03T17:45:50.515Z,415
2022-10-03T17:51:09.023Z,446
2022-10-03T17:56:27.736Z,461
2022-10-03T18:01:46.612Z,474
2022-10-03T18:07:05.231Z,494
2022-10-03T18:12:23.392Z,511
2022-10-03T18:17:41.888Z,521
2022-10-03T18:23:00.650Z,524
2022-10-03T18:28:19.418Z,529
2022-10-03T18:33:37.974Z,534
2022-10-03T18:38:56.176Z,544
2022-10-03T18:44:17.450Z,573
2022-10-03T18:49:36.239Z,625
2022-10-03T18:54:54.413Z,660
2022-10-03T19:00:13.171Z,692
2022-10-03T19:05:31.963Z,732
2022-10-03T19:10:50.429Z,767
2022-10-03T19:16:08.689Z,801
2022-10-03T19:21:27.011Z,845
2022-10-03T19:26:45.484Z,928
2022-10-03T19:32:04.046Z,900
2022-10-03T19:37:22.489Z,917
2022-10-03T19:42:40.954Z,926
2022-10-03T19:47:59.414Z,939
2022-10-03T19:53:18.203Z,922
2022-10-03T19:58:36.941Z,936
2022-10-03T20:03:55.456Z,954
2022-10-03T20:09:13.931Z,997
2022-10-03T20:14:32.407Z,1021
2022-10-03T20:19:50.882Z,1035
2022-10-03T20:25:09.677Z,1047
2022-10-03T20:30:28.297Z,1073
2022-10-03T20:35:46.537Z,1099
2022-10-03T20:41:05.017Z,1119
2022-10-03T20:46:23.527Z,1140
2022-10-03T20:51:42.314Z,1152
2022-10-03T20:57:01.488Z,1154
2022-10-03T21:02:19.971Z,1171
2022-10-03T21:07:38.395Z,1184
2022-10-03T21:12:56.901Z,1184
2022-10-03T21:18:15.378Z,1192
2022-10-03T21:23:33.861Z,1199
2022-10-03T21:28:52.312Z,1204
2022-10-03T21:34:10.757Z,1206
2022-10-03T21:39:29.214Z,1204
2022-10-03T21:44:47.767Z,1194
2022-10-03T21:50:06.507Z,1198
2022-10-03T21:55:39.441Z,1196
2022-10-03T22:01:16.786Z,1202
2022-10-03T22:06:35.122Z,1203
2022-10-03T22:11:53.166Z,1198
2022-10-03T22:17:11.679Z,1201
2022-10-03T22:22:29.580Z,1204
2022-10-03T22:27:48.341Z,1194
2022-10-03T22:33:06.870Z,1178
2022-10-03T22:38:25.317Z,1184
2022-10-03T22:43:43.234Z,1192
2022-10-03T22:49:01.853Z,1194
2022-10-03T22:54:20.307Z,1190
2022-10-03T22:59:39.061Z,1191
2022-10-03T23:04:57.038Z,1192
2022-10-03T23:10:15.779Z,1190
2022-10-03T23:15:34.019Z,1196
2022-10-03T23:20:52.141Z,1208
2022-10-03T23:26:10.604Z,1221
2022-10-03T23:31:29.134Z,1226
2022-10-03T23:36:47.766Z,1229
2022-10-03T23:42:06.496Z,1239
2022-10-03T23:47:24.705Z,1242
2022-10-03T23:52:43.227Z,1252
2022-10-03T23:58:01.979Z,1255
